TAF and METAR

Decoding for American and Canadian METARs and TAFs is not fully implemented.

Could not understand the following METAR

KHHV 171055Z AUTO 20012G17KT 10SM FEW023 FEW031 30/25 A2992 RMK A01
No TAF available for Alaminos Canyon